sensor_id;sensor_type;location;lat;lon;timestamp;P1;durP1;ratioP1;P2;durP2;ratioP2
49784;SDS011;35679;38.732;-121.358;2022-07-06T00:00:16;4.25;;;1.42;;
49784;SDS011;35679;38.732;-121.358;2022-07-06T00:03:05;8.00;;;1.42;;
49784;SDS011;35679;38.732;-121.358;2022-07-06T00:05:56;11.80;;;1.73;;
49784;SDS011;35679;38.732;-121.358;2022-07-06T00:08:45;3.60;;;1.30;;
49784;SDS011;35679;38.732;-121.358;2022-07-06T00:11:38;3.35;;;1.38;;
49784;SDS011;35679;38.732;-121.358;2022-07-06T00:14:28;4.07;;;1.33;;
49784;SDS011;35679;38.732;-121.358;2022-07-06T00:17:17;1.75;;;1.33;;
49784;SDS011;35679;38.732;-121.358;2022-07-06T00:20:06;3.50;;;1.30;;
49784;SDS011;35679;38.732;-121.358;2022-07-06T00:22:56;1.70;;;1.13;;
49784;SDS011;35679;38.732;-121.358;2022-07-06T00:25:45;1.77;;;1.15;;
49784;SDS011;35679;38.732;-121.358;2022-07-06T00:28:36;1.98;;;1.30;;
49784;SDS011;35679;38.732;-121.358;2022-07-06T00:31:26;1.95;;;1.17;;
49784;SDS011;35679;38.732;-121.358;2022-07-06T00:34:16;1.27;;;1.17;;
49784;SDS011;35679;38.732;-121.358;2022-07-06T00:37:06;2.15;;;1.17;;
49784;SDS011;35679;38.732;-121.358;2022-07-06T00:39:55;1.30;;;1.20;;
49784;SDS011;35679;38.732;-121.358;2022-07-06T00:42:45;1.52;;;1.10;;
49784;SDS011;35679;38.732;-121.358;2022-07-06T00:45:35;1.30;;;1.20;;
49784;SDS011;35679;38.732;-121.358;2022-07-06T00:48:25;2.25;;;1.50;;
49784;SDS011;35679;38.732;-121.358;2022-07-06T00:51:14;1.20;;;1.10;;
49784;SDS011;35679;38.732;-121.358;2022-07-06T00:54:04;4.10;;;1.27;;
49784;SDS011;35679;38.732;-121.358;2022-07-06T00:56:54;9.77;;;1.40;;
49784;SDS011;35679;38.732;-121.358;2022-07-06T00:59:44;4.65;;;1.40;;
49784;SDS011;35679;38.732;-121.358;2022-07-06T01:02:34;4.70;;;1.17;;
49784;SDS011;35679;38.732;-121.358;2022-07-06T01:05:24;2.60;;;1.10;;
49784;SDS011;35679;38.732;-121.358;2022-07-06T01:08:13;3.55;;;1.42;;
49784;SDS011;35679;38.732;-121.358;2022-07-06T01:11:03;4.13;;;1.40;;
49784;SDS011;35679;38.732;-121.358;2022-07-06T01:13:53;1.48;;;1.20;;
49784;SDS011;35679;38.732;-121.358;2022-07-06T01:16:44;1.25;;;1.15;;
49784;SDS011;35679;38.732;-121.358;2022-07-06T01:19:35;9.38;;;1.42;;
49784;SDS011;35679;38.732;-121.358;2022-07-06T01:22:24;8.77;;;1.50;;
49784;SDS011;35679;38.732;-121.358;2022-07-06T01:25:13;9.30;;;1.88;;
49784;SDS011;35679;38.732;-121.358;2022-07-06T01:28:03;7.18;;;1.33;;
49784;SDS011;35679;38.732;-121.358;2022-07-06T01:30:53;11.63;;;1.60;;
49784;SDS011;35679;38.732;-121.358;2022-07-06T01:33:43;11.55;;;1.55;;
49784;SDS011;35679;38.732;-121.358;2022-07-06T01:36:32;10.55;;;1.85;;
49784;SDS011;35679;38.732;-121.358;2022-07-06T01:39:22;10.98;;;1.60;;
49784;SDS011;35679;38.732;-121.358;2022-07-06T01:42:11;5.35;;;1.27;;
49784;SDS011;35679;38.732;-121.358;2022-07-06T01:45:03;3.03;;;1.00;;
49784;SDS011;35679;38.732;-121.358;2022-07-06T01:47:53;3.15;;;1.10;;
49784;SDS011;35679;38.732;-121.358;2022-07-06T01:50:43;0.80;;;0.80;;
49784;SDS011;35679;38.732;-121.358;2022-07-06T01:53:33;1.65;;;0.90;;
49784;SDS011;35679;38.732;-121.358;2022-07-06T01:56:24;1.20;;;0.88;;
49784;SDS011;35679;38.732;-121.358;2022-07-06T01:59:18;2.08;;;1.08;;
49784;SDS011;35679;38.732;-121.358;2022-07-06T02:02:07;1.05;;;0.90;;
49784;SDS011;35679;38.732;-121.358;2022-07-06T02:04:56;1.00;;;1.00;;
49784;SDS011;35679;38.732;-121.358;2022-07-06T02:07:48;1.20;;;1.00;;
49784;SDS011;35679;38.732;-121.358;2022-07-06T02:10:37;2.33;;;1.00;;
49784;SDS011;35679;38.732;-121.358;2022-07-06T02:13:27;6.03;;;1.42;;
49784;SDS011;35679;38.732;-121.358;2022-07-06T02:16:16;5.60;;;1.00;;
49784;SDS011;35679;38.732;-121.358;2022-07-06T02:19:06;1.67;;;0.90;;
49784;SDS011;35679;38.732;-121.358;2022-07-06T02:21:55;1.20;;;0.80;;
49784;SDS011;35679;38.732;-121.358;2022-07-06T02:24:45;1.30;;;0.70;;
49784;SDS011;35679;38.732;-121.358;2022-07-06T02:27:35;0.80;;;0.80;;
49784;SDS011;35679;38.732;-121.358;2022-07-06T02:30:27;1.15;;;0.77;;
49784;SDS011;35679;38.732;-121.358;2022-07-06T02:33:17;0.70;;;0.70;;
49784;SDS011;35679;38.732;-121.358;2022-07-06T02:36:06;0.73;;;0.73;;
49784;SDS011;35679;38.732;-121.358;2022-07-06T02:38:56;0.88;;;0.88;;
49784;SDS011;35679;38.732;-121.358;2022-07-06T02:41:45;0.90;;;0.90;;
49784;SDS011;35679;38.732;-121.358;2022-07-06T02:44:34;2.00;;;0.98;;
49784;SDS011;35679;38.732;-121.358;2022-07-06T02:47:23;1.20;;;0.70;;
49784;SDS011;35679;38.732;-121.358;2022-07-06T02:50:14;2.47;;;0.80;;
49784;SDS011;35679;38.732;-121.358;2022-07-06T02:53:03;1.10;;;1.10;;
49784;SDS011;35679;38.732;-121.358;2022-07-06T02:55:52;1.02;;;0.90;;
49784;SDS011;35679;38.732;-121.358;2022-07-06T02:58:43;4.72;;;1.00;;
49784;SDS011;35679;38.732;-121.358;2022-07-06T03:01:33;3.00;;;0.90;;
49784;SDS011;35679;38.732;-121.358;2022-07-06T03:04:23;3.80;;;0.90;;
49784;SDS011;35679;38.732;-121.358;2022-07-06T03:07:12;0.80;;;0.80;;
49784;SDS011;35679;38.732;-121.358;2022-07-06T03:10:03;1.38;;;1.00;;
49784;SDS011;35679;38.732;-121.358;2022-07-06T03:12:52;1.13;;;0.90;;
49784;SDS011;35679;38.732;-121.358;2022-07-06T03:15:42;0.90;;;0.90;;
49784;SDS011;35679;38.732;-121.358;2022-07-06T03:18:31;0.90;;;0.90;;
49784;SDS011;35679;38.732;-121.358;2022-07-06T03:21:21;1.60;;;0.70;;
49784;SDS011;35679;38.732;-121.358;2022-07-06T03:24:12;0.80;;;0.80;;
49784;SDS011;35679;38.732;-121.358;2022-07-06T03:27:01;0.70;;;0.70;;
49784;SDS011;35679;38.732;-121.358;2022-07-06T03:29:51;0.70;;;0.70;;
49784;SDS011;35679;38.732;-121.358;2022-07-06T03:32:42;0.70;;;0.70;;
49784;SDS011;35679;38.732;-121.358;2022-07-06T03:35:31;1.35;;;0.77;;
49784;SDS011;35679;38.732;-121.358;2022-07-06T03:38:23;0.60;;;0.60;;
49784;SDS011;35679;38.732;-121.358;2022-07-06T03:41:13;0.63;;;0.63;;
49784;SDS011;35679;38.732;-121.358;2022-07-06T03:44:03;0.60;;;0.60;;
49784;SDS011;35679;38.732;-121.358;2022-07-06T03:46:53;0.70;;;0.70;;
49784;SDS011;35679;38.732;-121.358;2022-07-06T03:49:45;0.75;;;0.70;;
49784;SDS011;35679;38.732;-121.358;2022-07-06T03:52:35;0.70;;;0.70;;
49784;SDS011;35679;38.732;-121.358;2022-07-06T03:55:28;1.85;;;0.90;;
49784;SDS011;35679;38.732;-121.358;2022-07-06T03:58:21;0.63;;;0.63;;
49784;SDS011;35679;38.732;-121.358;2022-07-06T04:01:11;1.17;;;0.75;;
49784;SDS011;35679;38.732;-121.358;2022-07-06T04:04:01;0.80;;;0.80;;
49784;SDS011;35679;38.732;-121.358;2022-07-06T04:06:52;0.88;;;0.77;;
49784;SDS011;35679;38.732;-121.358;2022-07-06T04:09:41;0.70;;;0.70;;
49784;SDS011;35679;38.732;-121.358;2022-07-06T04:12:31;0.80;;;0.80;;
49784;SDS011;35679;38.732;-121.358;2022-07-06T04:15:20;0.80;;;0.80;;
49784;SDS011;35679;38.732;-121.358;2022-07-06T04:18:10;0.70;;;0.70;;
49784;SDS011;35679;38.732;-121.358;2022-07-06T04:21:07;0.70;;;0.70;;
49784;SDS011;35679;38.732;-121.358;2022-07-06T04:23:57;1.55;;;0.60;;
49784;SDS011;35679;38.732;-121.358;2022-07-06T04:26:47;0.80;;;0.80;;
49784;SDS011;35679;38.732;-121.358;2022-07-06T04:29:36;0.70;;;0.70;;
49784;SDS011;35679;38.732;-121.358;2022-07-06T04:32:25;0.75;;;0.75;;
49784;SDS011;35679;38.732;-121.358;2022-07-06T04:35:15;1.33;;;0.90;;
49784;SDS011;35679;38.732;-121.358;2022-07-06T04:38:06;0.70;;;0.70;;
49784;SDS011;35679;38.732;-121.358;2022-07-06T04:40:56;0.80;;;0.80;;
49784;SDS011;35679;38.732;-121.358;2022-07-06T04:43:45;0.80;;;0.80;;
49784;SDS011;35679;38.732;-121.358;2022-07-06T04:46:37;1.00;;;0.95;;
49784;SDS011;35679;38.732;-121.358;2022-07-06T04:49:26;0.95;;;0.95;;
49784;SDS011;35679;38.732;-121.358;2022-07-06T04:52:16;0.90;;;0.90;;
49784;SDS011;35679;38.732;-121.358;2022-07-06T04:55:05;0.80;;;0.80;;
49784;SDS011;35679;38.732;-121.358;2022-07-06T04:57:58;1.10;;;1.00;;
49784;SDS011;35679;38.732;-121.358;2022-07-06T05:00:47;0.80;;;0.80;;
49784;SDS011;35679;38.732;-121.358;2022-07-06T05:03:37;0.95;;;0.80;;
49784;SDS011;35679;38.732;-121.358;2022-07-06T05:06:31;1.20;;;0.93;;
49784;SDS011;35679;38.732;-121.358;2022-07-06T05:09:21;0.80;;;0.80;;
49784;SDS011;35679;38.732;-121.358;2022-07-06T05:12:10;1.58;;;0.90;;
49784;SDS011;35679;38.732;-121.358;2022-07-06T05:14:59;0.90;;;0.90;;
49784;SDS011;35679;38.732;-121.358;2022-07-06T05:17:49;0.90;;;0.90;;
49784;SDS011;35679;38.732;-121.358;2022-07-06T05:20:39;1.75;;;0.95;;
49784;SDS011;35679;38.732;-121.358;2022-07-06T05:23:29;1.08;;;1.08;;
49784;SDS011;35679;38.732;-121.358;2022-07-06T05:26:19;1.05;;;1.05;;
49784;SDS011;35679;38.732;-121.358;2022-07-06T05:29:08;0.93;;;0.93;;
49784;SDS011;35679;38.732;-121.358;2022-07-06T05:31:58;1.02;;;1.00;;
49784;SDS011;35679;38.732;-121.358;2022-07-06T05:34:49;1.00;;;1.00;;
49784;SDS011;35679;38.732;-121.358;2022-07-06T05:40:29;1.00;;;1.00;;
49784;SDS011;35679;38.732;-121.358;2022-07-06T05:43:19;1.02;;;1.00;;
49784;SDS011;35679;38.732;-121.358;2022-07-06T05:46:09;1.05;;;1.05;;
49784;SDS011;35679;38.732;-121.358;2022-07-06T05:48:59;1.00;;;1.00;;
49784;SDS011;35679;38.732;-121.358;2022-07-06T05:52:06;1.00;;;1.00;;
49784;SDS011;35679;38.732;-121.358;2022-07-06T05:54:55;0.90;;;0.90;;
49784;SDS011;35679;38.732;-121.358;2022-07-06T05:57:45;1.00;;;1.00;;
49784;SDS011;35679;38.732;-121.358;2022-07-06T06:00:34;1.00;;;1.00;;
49784;SDS011;35679;38.732;-121.358;2022-07-06T06:03:30;0.98;;;0.98;;
49784;SDS011;35679;38.732;-121.358;2022-07-06T06:06:21;1.10;;;1.10;;
49784;SDS011;35679;38.732;-121.358;2022-07-06T06:09:12;1.20;;;1.20;;
49784;SDS011;35679;38.732;-121.358;2022-07-06T06:12:02;1.02;;;1.00;;
49784;SDS011;35679;38.732;-121.358;2022-07-06T06:14:52;1.10;;;1.10;;
49784;SDS011;35679;38.732;-121.358;2022-07-06T06:17:41;1.10;;;1.10;;
49784;SDS011;35679;38.732;-121.358;2022-07-06T06:20:31;1.13;;;1.13;;
49784;SDS011;35679;38.732;-121.358;2022-07-06T06:23:20;1.00;;;1.00;;
49784;SDS011;35679;38.732;-121.358;2022-07-06T06:26:09;1.27;;;1.10;;
49784;SDS011;35679;38.732;-121.358;2022-07-06T06:28:59;1.30;;;1.25;;
49784;SDS011;35679;38.732;-121.358;2022-07-06T06:31:48;1.30;;;1.20;;
49784;SDS011;35679;38.732;-121.358;2022-07-06T06:34:39;1.45;;;1.20;;
49784;SDS011;35679;38.732;-121.358;2022-07-06T06:37:28;1.55;;;1.35;;
49784;SDS011;35679;38.732;-121.358;2022-07-06T06:40:18;1.10;;;1.10;;
49784;SDS011;35679;38.732;-121.358;2022-07-06T06:43:08;1.58;;;1.48;;
49784;SDS011;35679;38.732;-121.358;2022-07-06T06:46:30;1.30;;;1.20;;
49784;SDS011;35679;38.732;-121.358;2022-07-06T06:49:19;1.20;;;1.20;;
49784;SDS011;35679;38.732;-121.358;2022-07-06T06:52:08;1.15;;;1.15;;
49784;SDS011;35679;38.732;-121.358;2022-07-06T06:55:17;1.20;;;1.20;;
49784;SDS011;35679;38.732;-121.358;2022-07-06T06:58:07;1.40;;;1.30;;
49784;SDS011;35679;38.732;-121.358;2022-07-06T07:00:56;1.20;;;1.20;;
49784;SDS011;35679;38.732;-121.358;2022-07-06T07:03:45;1.25;;;1.25;;
49784;SDS011;35679;38.732;-121.358;2022-07-06T07:06:34;1.33;;;1.23;;
49784;SDS011;35679;38.732;-121.358;2022-07-06T07:09:24;1.48;;;1.38;;
49784;SDS011;35679;38.732;-121.358;2022-07-06T07:12:13;1.42;;;1.27;;
49784;SDS011;35679;38.732;-121.358;2022-07-06T07:15:05;1.38;;;1.27;;
49784;SDS011;35679;38.732;-121.358;2022-07-06T07:17:55;1.27;;;1.20;;
49784;SDS011;35679;38.732;-121.358;2022-07-06T07:20:44;1.38;;;1.30;;
49784;SDS011;35679;38.732;-121.358;2022-07-06T07:23:34;1.40;;;1.30;;
49784;SDS011;35679;38.732;-121.358;2022-07-06T07:26:23;1.40;;;1.40;;
49784;SDS011;35679;38.732;-121.358;2022-07-06T07:29:12;1.60;;;1.50;;
49784;SDS011;35679;38.732;-121.358;2022-07-06T07:32:01;1.55;;;1.30;;
49784;SDS011;35679;38.732;-121.358;2022-07-06T07:34:51;1.38;;;1.38;;
49784;SDS011;35679;38.732;-121.358;2022-07-06T07:37:40;1.40;;;1.40;;
49784;SDS011;35679;38.732;-121.358;2022-07-06T07:40:30;1.50;;;1.40;;
49784;SDS011;35679;38.732;-121.358;2022-07-06T07:43:20;1.50;;;1.50;;
49784;SDS011;35679;38.732;-121.358;2022-07-06T07:46:09;1.20;;;1.10;;
49784;SDS011;35679;38.732;-121.358;2022-07-06T07:48:58;1.88;;;1.60;;
49784;SDS011;35679;38.732;-121.358;2022-07-06T07:51:49;1.30;;;1.30;;
49784;SDS011;35679;38.732;-121.358;2022-07-06T07:54:38;1.80;;;1.70;;
49784;SDS011;35679;38.732;-121.358;2022-07-06T07:57:35;1.40;;;1.30;;
49784;SDS011;35679;38.732;-121.358;2022-07-06T08:00:24;2.20;;;1.50;;
49784;SDS011;35679;38.732;-121.358;2022-07-06T08:03:15;1.23;;;1.23;;
49784;SDS011;35679;38.732;-121.358;2022-07-06T08:06:04;1.42;;;1.40;;
49784;SDS011;35679;38.732;-121.358;2022-07-06T08:08:53;1.63;;;1.52;;
49784;SDS011;35679;38.732;-121.358;2022-07-06T08:11:43;1.33;;;1.33;;
49784;SDS011;35679;38.732;-121.358;2022-07-06T08:14:32;1.30;;;1.30;;
49784;SDS011;35679;38.732;-121.358;2022-07-06T08:17:23;2.00;;;1.50;;
49784;SDS011;35679;38.732;-121.358;2022-07-06T08:20:13;1.30;;;1.30;;
49784;SDS011;35679;38.732;-121.358;2022-07-06T08:23:02;1.50;;;1.50;;
49784;SDS011;35679;38.732;-121.358;2022-07-06T08:25:51;1.40;;;1.40;;
49784;SDS011;35679;38.732;-121.358;2022-07-06T08:28:41;1.65;;;1.60;;
49784;SDS011;35679;38.732;-121.358;2022-07-06T08:31:30;1.60;;;1.60;;
49784;SDS011;35679;38.732;-121.358;2022-07-06T08:34:39;1.50;;;1.50;;
49784;SDS011;35679;38.732;-121.358;2022-07-06T08:37:29;1.50;;;1.40;;
49784;SDS011;35679;38.732;-121.358;2022-07-06T08:40:19;1.23;;;1.23;;
49784;SDS011;35679;38.732;-121.358;2022-07-06T08:43:08;1.30;;;1.30;;
49784;SDS011;35679;38.732;-121.358;2022-07-06T08:45:57;1.30;;;1.30;;
49784;SDS011;35679;38.732;-121.358;2022-07-06T08:48:48;1.42;;;1.42;;
49784;SDS011;35679;38.732;-121.358;2022-07-06T08:51:40;1.40;;;1.40;;
49784;SDS011;35679;38.732;-121.358;2022-07-06T08:54:31;1.42;;;1.40;;
49784;SDS011;35679;38.732;-121.358;2022-07-06T08:57:20;1.30;;;1.30;;
49784;SDS011;35679;38.732;-121.358;2022-07-06T09:00:10;1.27;;;1.27;;
49784;SDS011;35679;38.732;-121.358;2022-07-06T09:03:00;1.20;;;1.20;;
49784;SDS011;35679;38.732;-121.358;2022-07-06T09:05:51;1.40;;;1.38;;
49784;SDS011;35679;38.732;-121.358;2022-07-06T09:08:44;1.40;;;1.30;;
49784;SDS011;35679;38.732;-121.358;2022-07-06T09:11:35;1.30;;;1.30;;
49784;SDS011;35679;38.732;-121.358;2022-07-06T09:14:25;1.50;;;1.40;;
49784;SDS011;35679;38.732;-121.358;2022-07-06T09:17:17;1.40;;;1.40;;
49784;SDS011;35679;38.732;-121.358;2022-07-06T09:20:07;1.50;;;1.50;;
49784;SDS011;35679;38.732;-121.358;2022-07-06T09:23:02;3.42;;;1.60;;
49784;SDS011;35679;38.732;-121.358;2022-07-06T09:25:56;1.30;;;1.30;;
49784;SDS011;35679;38.732;-121.358;2022-07-06T09:28:45;1.27;;;1.27;;
49784;SDS011;35679;38.732;-121.358;2022-07-06T09:31:36;1.42;;;1.33;;
49784;SDS011;35679;38.732;-121.358;2022-07-06T09:34:47;1.20;;;1.20;;
49784;SDS011;35679;38.732;-121.358;2022-07-06T09:37:35;1.30;;;1.30;;
49784;SDS011;35679;38.732;-121.358;2022-07-06T09:40:25;1.50;;;1.40;;
49784;SDS011;35679;38.732;-121.358;2022-07-06T09:43:15;1.30;;;1.30;;
49784;SDS011;35679;38.732;-121.358;2022-07-06T09:46:06;1.30;;;1.30;;
49784;SDS011;35679;38.732;-121.358;2022-07-06T09:48:58;1.30;;;1.30;;
49784;SDS011;35679;38.732;-121.358;2022-07-06T09:51:51;1.27;;;1.27;;
49784;SDS011;35679;38.732;-121.358;2022-07-06T09:54:43;1.52;;;1.42;;
49784;SDS011;35679;38.732;-121.358;2022-07-06T09:57:37;1.30;;;1.30;;
49784;SDS011;35679;38.732;-121.358;2022-07-06T10:00:28;1.45;;;1.40;;
49784;SDS011;35679;38.732;-121.358;2022-07-06T10:03:18;1.65;;;1.55;;
49784;SDS011;35679;38.732;-121.358;2022-07-06T10:06:07;1.10;;;1.10;;
49784;SDS011;35679;38.732;-121.358;2022-07-06T10:08:57;1.30;;;1.30;;
49784;SDS011;35679;38.732;-121.358;2022-07-06T10:11:49;1.30;;;1.30;;
49784;SDS011;35679;38.732;-121.358;2022-07-06T10:14:39;1.30;;;1.30;;
49784;SDS011;35679;38.732;-121.358;2022-07-06T10:17:36;1.52;;;1.40;;
49784;SDS011;35679;38.732;-121.358;2022-07-06T10:20:29;1.30;;;1.30;;
49784;SDS011;35679;38.732;-121.358;2022-07-06T10:23:25;1.40;;;1.40;;
49784;SDS011;35679;38.732;-121.358;2022-07-06T10:26:17;1.30;;;1.30;;
49784;SDS011;35679;38.732;-121.358;2022-07-06T10:29:07;1.40;;;1.40;;
49784;SDS011;35679;38.732;-121.358;2022-07-06T10:31:57;1.33;;;1.30;;
49784;SDS011;35679;38.732;-121.358;2022-07-06T10:34:47;1.33;;;1.33;;
49784;SDS011;35679;38.732;-121.358;2022-07-06T10:37:37;2.03;;;1.48;;
49784;SDS011;35679;38.732;-121.358;2022-07-06T10:40:39;1.30;;;1.30;;
49784;SDS011;35679;38.732;-121.358;2022-07-06T10:43:48;1.60;;;1.50;;
49784;SDS011;35679;38.732;-121.358;2022-07-06T10:46:38;1.50;;;1.40;;
49784;SDS011;35679;38.732;-121.358;2022-07-06T10:49:28;1.40;;;1.40;;
49784;SDS011;35679;38.732;-121.358;2022-07-06T10:52:57;1.42;;;1.40;;
49784;SDS011;35679;38.732;-121.358;2022-07-06T10:55:47;1.40;;;1.40;;
49784;SDS011;35679;38.732;-121.358;2022-07-06T10:58:46;1.40;;;1.30;;
49784;SDS011;35679;38.732;-121.358;2022-07-06T11:05:11;2.13;;;1.30;;
49784;SDS011;35679;38.732;-121.358;2022-07-06T11:08:41;1.48;;;1.48;;
49784;SDS011;35679;38.732;-121.358;2022-07-06T11:14:24;1.20;;;1.20;;
49784;SDS011;35679;38.732;-121.358;2022-07-06T11:17:14;1.20;;;1.20;;
49784;SDS011;35679;38.732;-121.358;2022-07-06T11:20:10;1.25;;;1.25;;
49784;SDS011;35679;38.732;-121.358;2022-07-06T11:23:00;1.20;;;1.20;;
49784;SDS011;35679;38.732;-121.358;2022-07-06T11:25:50;1.30;;;1.23;;
49784;SDS011;35679;38.732;-121.358;2022-07-06T11:28:40;1.38;;;1.38;;
49784;SDS011;35679;38.732;-121.358;2022-07-06T11:31:29;1.20;;;1.20;;
49784;SDS011;35679;38.732;-121.358;2022-07-06T11:37:11;1.45;;;1.40;;
49784;SDS011;35679;38.732;-121.358;2022-07-06T11:42:55;1.42;;;1.33;;
49784;SDS011;35679;38.732;-121.358;2022-07-06T11:45:45;1.10;;;1.10;;
49784;SDS011;35679;38.732;-121.358;2022-07-06T11:48:34;1.40;;;1.30;;
49784;SDS011;35679;38.732;-121.358;2022-07-06T11:51:24;1.20;;;1.20;;
49784;SDS011;35679;38.732;-121.358;2022-07-06T11:54:20;1.30;;;1.30;;
49784;SDS011;35679;38.732;-121.358;2022-07-06T11:57:11;1.40;;;1.13;;
49784;SDS011;35679;38.732;-121.358;2022-07-06T12:00:01;1.25;;;1.25;;
49784;SDS011;35679;38.732;-121.358;2022-07-06T12:02:59;1.17;;;1.17;;
49784;SDS011;35679;38.732;-121.358;2022-07-06T12:05:49;1.17;;;1.10;;
49784;SDS011;35679;38.732;-121.358;2022-07-06T12:08:42;1.25;;;1.25;;
49784;SDS011;35679;38.732;-121.358;2022-07-06T12:11:34;1.75;;;1.00;;
49784;SDS011;35679;38.732;-121.358;2022-07-06T12:14:25;1.10;;;1.10;;
49784;SDS011;35679;38.732;-121.358;2022-07-06T12:17:15;1.20;;;1.20;;
49784;SDS011;35679;38.732;-121.358;2022-07-06T12:20:05;1.10;;;1.10;;
49784;SDS011;35679;38.732;-121.358;2022-07-06T12:23:37;1.98;;;1.27;;
49784;SDS011;35679;38.732;-121.358;2022-07-06T12:26:11;1.35;;;1.10;;
49784;SDS011;35679;38.732;-121.358;2022-07-06T12:29:05;1.20;;;1.20;;
49784;SDS011;35679;38.732;-121.358;2022-07-06T12:32:01;1.40;;;1.30;;
49784;SDS011;35679;38.732;-121.358;2022-07-06T12:35:04;1.40;;;1.40;;
49784;SDS011;35679;38.732;-121.358;2022-07-06T12:37:55;1.30;;;1.30;;
49784;SDS011;35679;38.732;-121.358;2022-07-06T12:40:51;1.60;;;1.40;;
49784;SDS011;35679;38.732;-121.358;2022-07-06T12:43:40;1.40;;;1.40;;
49784;SDS011;35679;38.732;-121.358;2022-07-06T12:46:38;1.30;;;1.30;;
49784;SDS011;35679;38.732;-121.358;2022-07-06T12:49:29;1.30;;;1.20;;
49784;SDS011;35679;38.732;-121.358;2022-07-06T12:52:18;1.30;;;1.30;;
49784;SDS011;35679;38.732;-121.358;2022-07-06T12:55:08;1.30;;;1.30;;
49784;SDS011;35679;38.732;-121.358;2022-07-06T12:58:00;1.50;;;1.40;;
49784;SDS011;35679;38.732;-121.358;2022-07-06T13:00:50;1.67;;;1.40;;
49784;SDS011;35679;38.732;-121.358;2022-07-06T13:03:40;1.95;;;1.40;;
49784;SDS011;35679;38.732;-121.358;2022-07-06T13:06:30;1.20;;;1.20;;
49784;SDS011;35679;38.732;-121.358;2022-07-06T13:09:21;1.20;;;1.20;;
49784;SDS011;35679;38.732;-121.358;2022-07-06T13:12:11;1.40;;;1.40;;
49784;SDS011;35679;38.732;-121.358;2022-07-06T13:15:01;1.55;;;1.45;;
49784;SDS011;35679;38.732;-121.358;2022-07-06T13:17:52;1.20;;;1.20;;
49784;SDS011;35679;38.732;-121.358;2022-07-06T13:20:41;1.85;;;1.30;;
49784;SDS011;35679;38.732;-121.358;2022-07-06T13:23:31;1.98;;;1.50;;
49784;SDS011;35679;38.732;-121.358;2022-07-06T13:26:21;1.40;;;1.40;;
49784;SDS011;35679;38.732;-121.358;2022-07-06T13:29:10;1.42;;;1.42;;
49784;SDS011;35679;38.732;-121.358;2022-07-06T13:32:00;1.30;;;1.30;;
49784;SDS011;35679;38.732;-121.358;2022-07-06T13:34:50;2.58;;;1.40;;
49784;SDS011;35679;38.732;-121.358;2022-07-06T13:37:39;1.42;;;1.40;;
49784;SDS011;35679;38.732;-121.358;2022-07-06T13:40:28;1.20;;;1.20;;
49784;SDS011;35679;38.732;-121.358;2022-07-06T13:43:18;1.40;;;1.40;;
49784;SDS011;35679;38.732;-121.358;2022-07-06T13:46:08;1.40;;;1.30;;
49784;SDS011;35679;38.732;-121.358;2022-07-06T13:48:59;1.80;;;1.70;;
49784;SDS011;35679;38.732;-121.358;2022-07-06T13:51:48;1.92;;;1.60;;
49784;SDS011;35679;38.732;-121.358;2022-07-06T13:54:38;1.50;;;1.50;;
49784;SDS011;35679;38.732;-121.358;2022-07-06T13:57:27;1.55;;;1.40;;
49784;SDS011;35679;38.732;-121.358;2022-07-06T14:00:17;2.00;;;1.60;;
49784;SDS011;35679;38.732;-121.358;2022-07-06T14:03:06;3.08;;;1.60;;
49784;SDS011;35679;38.732;-121.358;2022-07-06T14:05:57;1.63;;;1.52;;
49784;SDS011;35679;38.732;-121.358;2022-07-06T14:08:52;1.52;;;1.50;;
49784;SDS011;35679;38.732;-121.358;2022-07-06T14:11:41;2.05;;;1.60;;
49784;SDS011;35679;38.732;-121.358;2022-07-06T14:14:30;1.75;;;1.60;;
49784;SDS011;35679;38.732;-121.358;2022-07-06T14:17:20;2.22;;;1.50;;
49784;SDS011;35679;38.732;-121.358;2022-07-06T14:20:10;1.45;;;1.45;;
49784;SDS011;35679;38.732;-121.358;2022-07-06T14:22:59;1.92;;;1.60;;
49784;SDS011;35679;38.732;-121.358;2022-07-06T14:25:49;1.70;;;1.60;;
49784;SDS011;35679;38.732;-121.358;2022-07-06T14:28:39;2.58;;;1.50;;
49784;SDS011;35679;38.732;-121.358;2022-07-06T14:31:28;1.65;;;1.55;;
49784;SDS011;35679;38.732;-121.358;2022-07-06T14:34:17;1.40;;;1.40;;
49784;SDS011;35679;38.732;-121.358;2022-07-06T14:37:07;1.73;;;1.60;;
49784;SDS011;35679;38.732;-121.358;2022-07-06T14:40:00;2.78;;;1.60;;
49784;SDS011;35679;38.732;-121.358;2022-07-06T14:42:49;1.27;;;1.27;;
49784;SDS011;35679;38.732;-121.358;2022-07-06T14:45:39;1.40;;;1.40;;
49784;SDS011;35679;38.732;-121.358;2022-07-06T14:48:28;1.63;;;1.50;;
49784;SDS011;35679;38.732;-121.358;2022-07-06T14:51:19;1.40;;;1.40;;
49784;SDS011;35679;38.732;-121.358;2022-07-06T14:54:08;1.35;;;1.35;;
49784;SDS011;35679;38.732;-121.358;2022-07-06T14:56:57;1.30;;;1.30;;
49784;SDS011;35679;38.732;-121.358;2022-07-06T14:59:47;1.45;;;1.40;;
49784;SDS011;35679;38.732;-121.358;2022-07-06T15:02:36;1.85;;;1.42;;
49784;SDS011;35679;38.732;-121.358;2022-07-06T15:05:26;1.20;;;1.20;;
49784;SDS011;35679;38.732;-121.358;2022-07-06T15:08:15;1.30;;;1.30;;
49784;SDS011;35679;38.732;-121.358;2022-07-06T15:11:06;1.50;;;1.40;;
49784;SDS011;35679;38.732;-121.358;2022-07-06T15:13:55;1.40;;;1.40;;
49784;SDS011;35679;38.732;-121.358;2022-07-06T15:16:45;1.45;;;1.35;;
49784;SDS011;35679;38.732;-121.358;2022-07-06T15:19:35;1.25;;;1.20;;
49784;SDS011;35679;38.732;-121.358;2022-07-06T15:22:24;1.40;;;1.40;;
49784;SDS011;35679;38.732;-121.358;2022-07-06T15:25:13;1.55;;;1.52;;
49784;SDS011;35679;38.732;-121.358;2022-07-06T15:28:03;1.60;;;1.50;;
49784;SDS011;35679;38.732;-121.358;2022-07-06T15:30:52;1.65;;;1.55;;
49784;SDS011;35679;38.732;-121.358;2022-07-06T15:33:42;1.30;;;1.30;;
49784;SDS011;35679;38.732;-121.358;2022-07-06T15:36:31;1.40;;;1.40;;
49784;SDS011;35679;38.732;-121.358;2022-07-06T15:39:20;1.77;;;1.60;;
49784;SDS011;35679;38.732;-121.358;2022-07-06T15:42:10;3.42;;;1.55;;
49784;SDS011;35679;38.732;-121.358;2022-07-06T15:44:59;1.48;;;1.40;;
49784;SDS011;35679;38.732;-121.358;2022-07-06T15:47:48;3.38;;;1.40;;
49784;SDS011;35679;38.732;-121.358;2022-07-06T15:50:37;4.13;;;1.30;;
49784;SDS011;35679;38.732;-121.358;2022-07-06T15:53:27;1.38;;;1.38;;
49784;SDS011;35679;38.732;-121.358;2022-07-06T15:56:17;1.75;;;1.30;;
49784;SDS011;35679;38.732;-121.358;2022-07-06T15:59:06;1.90;;;1.45;;
49784;SDS011;35679;38.732;-121.358;2022-07-06T16:01:55;2.30;;;1.40;;
49784;SDS011;35679;38.732;-121.358;2022-07-06T16:04:45;1.75;;;1.40;;
49784;SDS011;35679;38.732;-121.358;2022-07-06T16:07:34;1.33;;;1.25;;
49784;SDS011;35679;38.732;-121.358;2022-07-06T16:10:44;3.15;;;1.30;;
49784;SDS011;35679;38.732;-121.358;2022-07-06T16:13:33;1.30;;;1.30;;
49784;SDS011;35679;38.732;-121.358;2022-07-06T16:16:23;1.38;;;1.38;;
49784;SDS011;35679;38.732;-121.358;2022-07-06T16:19:13;1.35;;;1.35;;
49784;SDS011;35679;38.732;-121.358;2022-07-06T16:22:03;1.55;;;1.45;;
49784;SDS011;35679;38.732;-121.358;2022-07-06T16:24:52;1.10;;;1.10;;
49784;SDS011;35679;38.732;-121.358;2022-07-06T16:27:45;1.38;;;1.35;;
49784;SDS011;35679;38.732;-121.358;2022-07-06T16:30:34;1.30;;;1.30;;
49784;SDS011;35679;38.732;-121.358;2022-07-06T16:33:24;1.20;;;1.20;;
49784;SDS011;35679;38.732;-121.358;2022-07-06T16:36:14;2.38;;;1.45;;
49784;SDS011;35679;38.732;-121.358;2022-07-06T16:39:04;1.73;;;1.48;;